createdAt,value
2022-10-11T00:00:24.794Z,88.67
2022-10-11T00:02:57.519Z,88.59
2022-10-11T00:05:28.823Z,88.54
2022-10-11T00:08:00.306Z,88.63
2022-10-11T00:10:31.212Z,88.59
2022-10-11T00:13:03.680Z,88.48
2022-10-11T00:15:35.078Z,88.35
2022-10-11T00:18:06.286Z,88.54
2022-10-11T00:20:37.389Z,88.36
2022-10-11T00:23:11.059Z,88.38
2022-10-11T00:25:42.754Z,88.38
2022-10-11T00:28:14.249Z,88.35
2022-10-11T00:30:47.285Z,88.30
2022-10-11T00:33:18.194Z,88.19
2022-10-11T00:35:49.927Z,88.16
2022-10-11T00:38:21.509Z,88.03
2022-10-11T00:40:53.028Z,88.28
2022-10-11T00:43:26.051Z,88.20
2022-10-11T00:46:26.052Z,88.27
2022-10-11T00:49:01.953Z,88.13
2022-10-11T00:51:40.510Z,88.00
2022-10-11T00:54:16.302Z,88.05
2022-10-11T00:56:51.049Z,87.88
2022-10-11T00:59:26.565Z,87.59
2022-10-11T01:01:57.585Z,87.69
2022-10-11T01:04:28.657Z,87.66
2022-10-11T01:07:03.274Z,87.54
2022-10-11T01:09:34.637Z,87.79
2022-10-11T01:12:13.466Z,87.64
2022-10-11T01:15:13.197Z,87.81
2022-10-11T01:17:55.204Z,87.78
2022-10-11T01:20:42.625Z,87.69
2022-10-11T01:23:50.705Z,87.63
2022-10-11T01:26:50.846Z,87.79
2022-10-11T01:29:36.870Z,87.77
2022-10-11T01:32:16.314Z,87.55
2022-10-11T01:34:56.868Z,87.49
2022-10-11T01:37:33.782Z,87.66
2022-10-11T01:40:10.709Z,87.66
2022-10-11T01:42:42.734Z,87.68
2022-10-11T01:45:18.244Z,87.66
2022-10-11T01:47:49.116Z,87.71
2022-10-11T01:50:43.200Z,87.57
2022-10-11T01:53:35.751Z,87.66
2022-10-11T01:56:18.561Z,87.58
2022-10-11T01:59:06.627Z,87.46
2022-10-11T02:01:45.178Z,87.36
2022-10-11T02:04:24.866Z,87.60
2022-10-11T02:07:02.920Z,87.61
2022-10-11T02:09:39.209Z,87.61
2022-10-11T02:12:15.384Z,87.74
2022-10-11T02:14:50.472Z,87.65
2022-10-11T02:17:24.086Z,87.60
2022-10-11T02:19:58.627Z,87.44
2022-10-11T02:22:35.376Z,87.59
2022-10-11T02:25:11.765Z,87.64
2022-10-11T02:27:46.549Z,87.46
2022-10-11T02:30:18.171Z,87.45
2022-10-11T02:32:51.499Z,87.56
2022-10-11T02:35:24.685Z,87.36
2022-10-11T02:37:59.588Z,87.49
2022-10-11T02:40:34.925Z,87.30
2022-10-11T02:43:10.373Z,87.35
2022-10-11T02:45:43.381Z,87.40
2022-10-11T02:48:15.346Z,87.33
2022-10-11T02:50:45.949Z,87.45
2022-10-11T02:53:16.385Z,87.27
2022-10-11T02:55:47.743Z,87.35
2022-10-11T02:58:18.574Z,87.30
2022-10-11T03:00:50.031Z,87.25
2022-10-11T03:03:21.582Z,87.13
2022-10-11T03:05:52.457Z,87.28
2022-10-11T03:08:23.359Z,87.29
2022-10-11T03:10:54.194Z,87.21
2022-10-11T03:13:24.994Z,87.32
2022-10-11T03:16:03.353Z,87.20
2022-10-11T03:18:38.542Z,87.37
2022-10-11T03:21:10.101Z,87.45
2022-10-11T03:23:42.592Z,87.39
2022-10-11T03:26:13.388Z,87.42
2022-10-11T03:28:44.140Z,87.29
2022-10-11T03:31:14.828Z,87.17
2022-10-11T03:33:45.753Z,87.04
2022-10-11T03:36:17.405Z,87.22
2022-10-11T03:38:48.284Z,86.92
2022-10-11T03:41:19.395Z,87.14
2022-10-11T03:43:49.952Z,86.83
2022-10-11T03:46:20.855Z,86.89
2022-10-11T03:48:51.548Z,86.70
2022-10-11T03:51:22.528Z,86.90
2022-10-11T03:53:53.271Z,86.94
2022-10-11T03:56:25.023Z,86.90
2022-10-11T03:58:55.959Z,86.99
2022-10-11T04:01:27.055Z,87.00
2022-10-11T04:03:59.512Z,86.91
2022-10-11T04:06:30.559Z,86.80
2022-10-11T04:09:01.629Z,87.03
2022-10-11T04:11:33.319Z,86.91
2022-10-11T04:14:05.490Z,86.86
2022-10-11T04:16:39.130Z,87.02
2022-10-11T04:19:11.721Z,87.10
2022-10-11T04:21:43.123Z,87.12
2022-10-11T04:24:14.596Z,87.05
2022-10-11T04:26:45.856Z,87.09
2022-10-11T04:29:17.486Z,87.38
2022-10-11T04:31:48.960Z,87.30
2022-10-11T04:34:20.941Z,87.31
2022-10-11T04:36:52.213Z,87.36
2022-10-11T04:39:23.668Z,87.24
2022-10-11T04:41:55.014Z,87.30
2022-10-11T04:44:26.273Z,87.30
2022-10-11T04:46:57.311Z,87.17
2022-10-11T04:49:28.781Z,87.18
2022-10-11T04:51:59.423Z,87.41
2022-10-11T04:54:30.641Z,87.50
2022-10-11T04:57:01.669Z,87.35
2022-10-11T04:59:33.696Z,87.19
2022-10-11T05:02:04.780Z,87.44
2022-10-11T05:04:36.446Z,87.45
2022-10-11T05:07:07.502Z,87.25
2022-10-11T05:09:38.109Z,87.33
2022-10-11T05:12:10.059Z,87.34
2022-10-11T05:14:40.989Z,87.26
2022-10-11T05:17:12.093Z,87.22
2022-10-11T05:19:42.898Z,87.13
2022-10-11T05:22:14.225Z,87.11
2022-10-11T05:24:45.083Z,87.02
2022-10-11T05:27:16.609Z,86.90
2022-10-11T05:29:48.178Z,86.82
2022-10-11T05:32:19.720Z,86.74
2022-10-11T05:34:51.659Z,86.86
2022-10-11T05:37:23.669Z,86.97
2022-10-11T05:39:55.861Z,87.12
2022-10-11T05:42:27.475Z,87.24
2022-10-11T05:45:02.038Z,87.36
2022-10-11T05:47:34.864Z,87.28
2022-10-11T05:50:10.266Z,87.45
2022-10-11T05:52:44.663Z,87.61
2022-10-11T05:55:15.601Z,87.51
2022-10-11T05:57:47.038Z,87.59
2022-10-11T06:00:19.449Z,87.55
2022-10-11T06:02:49.976Z,87.51
2022-10-11T06:05:20.658Z,87.72
2022-10-11T06:07:51.626Z,87.95
2022-10-11T06:10:22.650Z,87.96
2022-10-11T06:12:53.299Z,87.92
2022-10-11T06:15:24.648Z,87.94
2022-10-11T06:17:56.218Z,88.00
2022-10-11T06:20:27.532Z,88.05
2022-10-11T06:22:59.820Z,88.06
2022-10-11T06:25:30.826Z,88.11
2022-10-11T06:28:01.786Z,88.12
2022-10-11T06:30:33.143Z,88.10
2022-10-11T06:33:05.115Z,88.14
2022-10-11T06:35:36.617Z,88.25
2022-10-11T06:38:07.810Z,88.23
2022-10-11T06:40:38.545Z,88.37
2022-10-11T06:43:09.384Z,88.42
2022-10-11T06:45:40.215Z,88.56
2022-10-11T06:48:11.602Z,88.40
2022-10-11T06:50:59.185Z,88.53
2022-10-11T06:53:31.352Z,88.62
2022-10-11T06:56:08.675Z,88.78
2022-10-11T06:58:40.786Z,88.80
2022-10-11T07:01:13.812Z,88.82
2022-10-11T07:03:45.957Z,88.80
2022-10-11T07:06:18.880Z,88.91
2022-10-11T07:08:50.309Z,89.07
2022-10-11T07:11:23.862Z,89.24
2022-10-11T07:13:57.596Z,89.22
2022-10-11T07:16:29.876Z,89.33
2022-10-11T07:19:02.357Z,89.31
2022-10-11T07:21:34.830Z,89.55
2022-10-11T07:24:06.920Z,89.73
2022-10-11T07:26:38.143Z,89.88
2022-10-11T07:29:13.334Z,89.85
2022-10-11T07:31:45.619Z,89.93
2022-10-11T07:34:16.748Z,89.92
2022-10-11T07:36:48.309Z,90.05
2022-10-11T07:39:19.878Z,90.16
2022-10-11T07:41:51.050Z,90.29
2022-10-11T07:44:21.980Z,90.19
2022-10-11T07:46:53.606Z,90.30
2022-10-11T07:49:24.652Z,90.32
2022-10-11T07:51:55.797Z,90.25
2022-10-11T07:54:27.328Z,90.23
2022-10-11T07:56:58.419Z,90.32
2022-10-11T07:59:30.078Z,90.26
2022-10-11T08:02:01.733Z,90.35
2022-10-11T08:04:33.079Z,90.24
2022-10-11T08:07:04.731Z,90.26
2022-10-11T08:09:36.099Z,90.29
2022-10-11T08:12:07.537Z,90.24
2022-10-11T08:14:37.976Z,90.33
2022-10-11T08:17:08.438Z,90.12
2022-10-11T08:19:38.896Z,90.24
2022-10-11T08:22:09.312Z,90.09
2022-10-11T08:24:40.041Z,90.11
2022-10-11T08:27:11.174Z,90.03
2022-10-11T08:29:41.883Z,89.76
2022-10-11T08:32:12.499Z,89.89
2022-10-11T08:34:43.738Z,89.90
2022-10-11T08:37:14.438Z,89.90
2022-10-11T08:39:44.785Z,89.55
2022-10-11T08:42:22.626Z,89.33
2022-10-11T08:45:09.951Z,89.42
2022-10-11T08:47:45.332Z,89.74
2022-10-11T08:50:19.737Z,89.83
2022-10-11T08:52:53.783Z,89.70
2022-10-11T08:55:44.039Z,89.52
2022-10-11T08:58:18.229Z,89.38
2022-10-11T09:00:53.810Z,89.35
2022-10-11T09:03:36.455Z,89.18
2022-10-11T09:06:19.495Z,89.20
2022-10-11T09:09:04.345Z,89.12
2022-10-11T09:11:49.191Z,89.19
2022-10-11T09:14:43.754Z,89.06
2022-10-11T09:17:30.818Z,88.90
2022-10-11T09:20:26.321Z,88.90
2022-10-11T09:23:04.338Z,88.97
2022-10-11T09:25:44.602Z,88.88
2022-10-11T09:28:28.750Z,88.82
2022-10-11T09:31:01.525Z,88.80
2022-10-11T09:33:37.032Z,88.80
2022-10-11T09:36:23.078Z,88.65
2022-10-11T09:39:06.632Z,88.68
2022-10-11T09:41:44.295Z,88.54
2022-10-11T09:44:23.306Z,88.32
2022-10-11T09:46:55.580Z,88.18
2022-10-11T09:49:30.813Z,87.92
2022-10-11T09:52:04.996Z,87.90
2022-10-11T09:54:46.269Z,88.10
2022-10-11T09:57:26.513Z,88.17
2022-10-11T10:00:08.707Z,88.02
2022-10-11T10:02:48.901Z,87.92
2022-10-11T10:05:23.706Z,87.71
2022-10-11T10:08:08.517Z,87.58
2022-10-11T10:10:42.487Z,87.57
2022-10-11T10:13:23.472Z,87.55
2022-10-11T10:15:56.469Z,87.48
2022-10-11T10:18:33.877Z,87.38
2022-10-11T10:21:07.514Z,87.25
2022-10-11T10:23:39.064Z,87.06
2022-10-11T10:26:18.671Z,86.82
2022-10-11T10:29:02.754Z,86.58
2022-10-11T10:34:57.977Z,86.14
2022-10-11T10:37:34.945Z,85.54
2022-10-11T10:40:11.145Z,85.36
2022-10-11T10:42:41.638Z,85.03
2022-10-11T10:45:21.541Z,84.24
2022-10-11T10:48:18.313Z,83.92
2022-10-11T10:50:55.647Z,83.36
2022-10-11T10:53:33.562Z,81.99
2022-10-11T10:56:11.437Z,81.68
2022-10-11T10:58:45.923Z,81.54
2022-10-11T11:01:24.009Z,81.26
2022-10-11T11:04:06.698Z,81.18
2022-10-11T11:06:46.542Z,80.41
2022-10-11T11:09:31.022Z,80.27
2022-10-11T11:12:17.156Z,80.13
2022-10-11T11:14:59.751Z,79.57
2022-10-11T11:17:42.093Z,78.85
2022-10-11T11:20:31.350Z,77.80
2022-10-11T11:23:09.545Z,77.92
2022-10-11T11:25:48.110Z,77.32
2022-10-11T11:28:39.500Z,77.42
2022-10-11T11:31:20.960Z,77.20
2022-10-11T11:34:01.069Z,77.64
2022-10-11T11:36:44.490Z,77.70
2022-10-11T11:39:21.819Z,76.59
2022-10-11T11:41:57.908Z,76.67
2022-10-11T11:44:34.176Z,76.35
2022-10-11T11:47:10.616Z,75.73
2022-10-11T11:52:27.438Z,74.72
2022-10-11T11:55:06.708Z,74.12
2022-10-11T11:58:03.277Z,74.45
2022-10-11T12:00:45.573Z,74.19
2022-10-11T12:03:23.520Z,73.29
2022-10-11T12:06:27.114Z,72.54
2022-10-11T12:09:20.500Z,73.34
2022-10-11T12:11:56.656Z,72.66
2022-10-11T12:14:37.843Z,72.21
2022-10-11T12:17:20.209Z,71.94
2022-10-11T12:20:17.777Z,71.78
2022-10-11T12:23:03.613Z,71.75
2022-10-11T12:25:47.235Z,70.85
2022-10-11T12:28:53.774Z,70.58
2022-10-11T12:31:29.832Z,70.51
2022-10-11T12:34:33.675Z,70.54
2022-10-11T12:37:42.339Z,70.32
2022-10-11T12:40:37.385Z,68.54
2022-10-11T12:43:33.264Z,68.03
2022-10-11T12:46:40.392Z,66.84
2022-10-11T12:49:26.719Z,67.23
2022-10-11T12:52:02.649Z,67.10
2022-10-11T12:55:01.828Z,67.02
2022-10-11T12:58:04.343Z,66.63
2022-10-11T13:00:43.469Z,65.64
2022-10-11T13:03:32.606Z,66.15
2022-10-11T13:06:15.135Z,66.11
2022-10-11T13:08:49.586Z,65.59
2022-10-11T13:11:26.770Z,64.43
2022-10-11T13:13:59.799Z,64.79
2022-10-11T13:16:48.513Z,64.13
2022-10-11T13:19:22.615Z,64.15
2022-10-11T13:21:56.553Z,64.21
2022-10-11T13:24:29.415Z,64.05
2022-10-11T13:27:00.144Z,64.13
2022-10-11T13:29:35.326Z,63.98
2022-10-11T13:32:09.041Z,63.88
2022-10-11T13:34:42.797Z,64.10
2022-10-11T13:37:19.985Z,64.02
2022-10-11T13:39:52.157Z,64.00
2022-10-11T13:42:26.881Z,64.38
2022-10-11T13:44:58.527Z,63.98
2022-10-11T13:47:31.369Z,64.15
2022-10-11T13:50:19.532Z,63.05
2022-10-11T13:52:59.584Z,63.17
2022-10-11T13:55:33.563Z,63.39
2022-10-11T13:58:14.958Z,64.03
2022-10-11T14:00:57.231Z,63.83
2022-10-11T14:03:39.872Z,63.63
2022-10-11T14:06:10.741Z,63.73
2022-10-11T14:08:47.274Z,63.70
2022-10-11T14:11:33.096Z,63.74
2022-10-11T14:14:23.453Z,64.18
2022-10-11T14:17:00.376Z,64.25
2022-10-11T14:19:31.336Z,64.69
2022-10-11T14:22:01.663Z,64.13
2022-10-11T14:24:33.394Z,64.19
2022-10-11T14:27:07.309Z,64.06
2022-10-11T14:29:41.961Z,64.52
2022-10-11T14:32:16.028Z,64.12
2022-10-11T14:34:48.967Z,64.19
2022-10-11T14:37:20.606Z,63.88
2022-10-11T14:39:51.384Z,64.37
2022-10-11T14:42:22.302Z,64.69
2022-10-11T14:44:53.161Z,64.40
2022-10-11T14:47:23.783Z,64.85
2022-10-11T14:49:54.277Z,65.31
2022-10-11T14:52:24.618Z,66.14
2022-10-11T14:54:55.242Z,67.27
2022-10-11T14:57:26.359Z,67.36
2022-10-11T14:59:57.068Z,67.38
2022-10-11T15:02:27.772Z,67.43
2022-10-11T15:04:58.128Z,67.82
2022-10-11T15:07:28.742Z,68.54
2022-10-11T15:09:59.233Z,68.71
2022-10-11T15:12:30.172Z,68.44
2022-10-11T15:15:01.106Z,67.87
2022-10-11T15:17:31.994Z,67.73
2022-10-11T15:20:03.098Z,67.43
2022-10-11T15:22:33.828Z,67.91
2022-10-11T15:25:05.265Z,67.66
2022-10-11T15:27:38.813Z,67.92
2022-10-11T15:30:20.424Z,68.49
2022-10-11T15:32:52.042Z,68.51
2022-10-11T15:35:24.855Z,68.70
2022-10-11T15:37:58.636Z,68.77
2022-10-11T15:40:31.828Z,69.17
2022-10-11T15:43:03.134Z,69.36
2022-10-11T15:45:34.065Z,69.99
2022-10-11T15:48:05.022Z,70.21
2022-10-11T15:50:38.039Z,70.14
2022-10-11T15:53:10.828Z,70.06
2022-10-11T15:55:43.709Z,70.60
2022-10-11T15:58:16.484Z,70.85
2022-10-11T16:00:49.297Z,70.90
2022-10-11T16:03:21.907Z,70.90
2022-10-11T16:05:52.981Z,70.94
2022-10-11T16:08:23.922Z,70.76
2022-10-11T16:10:55.241Z,70.08
2022-10-11T16:13:25.736Z,69.24
2022-10-11T16:15:56.789Z,69.33
2022-10-11T16:18:31.257Z,68.76
2022-10-11T16:21:09.631Z,68.51
2022-10-11T16:23:41.546Z,68.33
2022-10-11T16:26:16.329Z,68.63
2022-10-11T16:28:47.894Z,68.62
2022-10-11T16:31:21.039Z,68.85
2022-10-11T16:33:52.955Z,69.11
2022-10-11T16:36:36.987Z,69.32
2022-10-11T16:39:11.814Z,69.90
2022-10-11T16:41:43.289Z,70.07
2022-10-11T16:44:17.436Z,70.25
2022-10-11T16:46:49.439Z,70.52
2022-10-11T16:49:22.494Z,70.92
2022-10-11T16:51:59.133Z,71.08
2022-10-11T16:54:30.533Z,71.29
2022-10-11T16:57:01.172Z,71.77
2022-10-11T16:59:32.489Z,71.86
2022-10-11T17:02:05.112Z,72.32
2022-10-11T17:04:35.682Z,72.62
2022-10-11T17:07:12.188Z,72.75
2022-10-11T17:09:44.424Z,72.95
2022-10-11T17:12:18.131Z,73.20
2022-10-11T17:14:49.948Z,73.16
2022-10-11T17:17:21.721Z,73.23
2022-10-11T17:19:52.461Z,73.48
2022-10-11T17:22:23.047Z,73.74
2022-10-11T17:24:54.041Z,73.91
2022-10-11T17:27:24.505Z,73.67
2022-10-11T17:29:55.494Z,73.47
2022-10-11T17:32:26.214Z,73.66
2022-10-11T17:34:57.431Z,73.87
2022-10-11T17:37:27.877Z,74.56
2022-10-11T17:39:58.317Z,74.73
2022-10-11T17:42:29.472Z,74.63
2022-10-11T17:45:00.275Z,74.83
2022-10-11T17:47:31.155Z,74.88
2022-10-11T17:50:01.716Z,75.32
2022-10-11T17:52:32.933Z,75.36
2022-10-11T17:55:03.627Z,75.60
2022-10-11T17:57:34.461Z,75.64
2022-10-11T18:00:06.087Z,75.51
2022-10-11T18:02:38.605Z,75.89
2022-10-11T18:05:14.255Z,75.44
2022-10-11T18:07:45.005Z,75.30
2022-10-11T18:10:15.569Z,75.55
2022-10-11T18:12:46.665Z,75.71
2022-10-11T18:15:17.120Z,76.05
2022-10-11T18:17:48.424Z,76.41
2022-10-11T18:20:19.263Z,76.48
2022-10-11T18:22:50.131Z,76.40
2022-10-11T18:25:21.324Z,76.36
2022-10-11T18:27:53.735Z,76.51
2022-10-11T18:30:25.813Z,76.87
2022-10-11T18:33:00.018Z,77.04
2022-10-11T18:35:42.746Z,77.11
2022-10-11T18:38:14.779Z,76.81
2022-10-11T18:40:50.466Z,77.01
2022-10-11T18:43:22.860Z,76.78
2022-10-11T18:46:04.344Z,76.78
2022-10-11T18:48:37.974Z,76.45
2022-10-11T18:51:22.736Z,76.55
2022-10-11T18:53:55.946Z,76.85
2022-10-11T18:56:32.818Z,77.15
2022-10-11T18:59:05.455Z,77.52
2022-10-11T19:01:39.986Z,77.59
2022-10-11T19:04:17.796Z,77.68
2022-10-11T19:06:53.429Z,77.51
2022-10-11T19:09:33.340Z,77.67
2022-10-11T19:12:13.891Z,77.58
2022-10-11T19:14:52.110Z,77.55
2022-10-11T19:17:26.969Z,77.39
2022-10-11T19:20:01.910Z,77.49
2022-10-11T19:22:34.519Z,77.76
2022-10-11T19:25:19.356Z,77.76
2022-10-11T19:27:55.536Z,78.07
2022-10-11T19:30:34.533Z,78.16
2022-10-11T19:33:07.392Z,78.17
2022-10-11T19:35:43.992Z,78.29
2022-10-11T19:38:16.087Z,78.24
2022-10-11T19:40:48.669Z,78.54
2022-10-11T19:43:25.008Z,78.48
2022-10-11T19:46:05.181Z,78.44
2022-10-11T19:48:44.487Z,78.69
2022-10-11T19:51:19.113Z,78.45
2022-10-11T19:53:57.271Z,78.42
2022-10-11T19:56:33.723Z,78.54
2022-10-11T19:59:08.241Z,78.67
2022-10-11T20:01:42.041Z,78.30
2022-10-11T20:04:33.558Z,78.14
2022-10-11T20:07:13.199Z,78.16
2022-10-11T20:09:49.444Z,78.45
2022-10-11T20:12:22.592Z,78.14
2022-10-11T20:14:54.808Z,77.76
2022-10-11T20:17:48.508Z,77.91
2022-10-11T20:20:26.070Z,78.26
2022-10-11T20:23:03.499Z,78.15
2022-10-11T20:25:36.529Z,77.98
2022-10-11T20:28:09.452Z,77.71
2022-10-11T20:30:55.851Z,77.93
2022-10-11T20:33:36.096Z,78.20
2022-10-11T20:36:17.365Z,78.46
2022-10-11T20:38:53.945Z,78.48
2022-10-11T20:41:33.669Z,77.92
2022-10-11T20:44:06.995Z,77.89
2022-10-11T20:46:41.226Z,78.21
2022-10-11T20:49:16.826Z,77.81
2022-10-11T20:51:51.101Z,78.34
2022-10-11T20:54:27.042Z,78.55
2022-10-11T20:57:00.877Z,78.59
2022-10-11T20:59:34.176Z,79.10
2022-10-11T21:02:13.413Z,79.39
2022-10-11T21:04:54.465Z,79.55
2022-10-11T21:07:30.312Z,79.81
2022-10-11T21:10:07.569Z,80.06
2022-10-11T21:12:39.544Z,79.82
2022-10-11T21:15:20.425Z,79.93
2022-10-11T21:17:59.290Z,79.88
2022-10-11T21:20:32.617Z,79.69
2022-10-11T21:23:05.963Z,80.00
2022-10-11T21:25:39.864Z,79.91
2022-10-11T21:28:11.534Z,80.01
2022-10-11T21:30:43.108Z,80.18
2022-10-11T21:33:16.876Z,80.07
2022-10-11T21:35:48.355Z,79.92
2022-10-11T21:38:20.797Z,79.91
2022-10-11T21:40:52.037Z,80.05
2022-10-11T21:43:25.209Z,80.13
2022-10-11T21:45:59.936Z,79.65
2022-10-11T21:48:33.149Z,79.79
2022-10-11T21:51:05.894Z,80.00
2022-10-11T21:53:38.203Z,80.16
2022-10-11T21:56:10.372Z,80.30
2022-10-11T21:58:42.110Z,80.08
2022-10-11T22:01:13.825Z,80.13
2022-10-11T22:03:45.995Z,80.26
2022-10-11T22:06:18.894Z,80.05
2022-10-11T22:08:51.640Z,79.98
2022-10-11T22:11:23.730Z,79.92
2022-10-11T22:13:55.399Z,80.02
2022-10-11T22:16:27.539Z,80.17
2022-10-11T22:19:00.276Z,80.02
2022-10-11T22:21:31.945Z,79.96
2022-10-11T22:24:03.475Z,79.70
2022-10-11T22:26:38.902Z,79.80
2022-10-11T22:29:10.360Z,80.01
2022-10-11T22:31:42.440Z,79.74
2022-10-11T22:34:13.837Z,79.36
2022-10-11T22:36:46.361Z,79.18
2022-10-11T22:39:18.628Z,79.50
2022-10-11T22:41:50.397Z,80.04
2022-10-11T22:44:22.828Z,79.82
2022-10-11T22:46:54.038Z,80.00
2022-10-11T22:49:26.199Z,80.28
2022-10-11T22:51:57.884Z,80.07
2022-10-11T22:54:29.767Z,80.05
2022-10-11T22:57:02.766Z,80.02
2022-10-11T22:59:34.249Z,80.42
2022-10-11T23:02:05.901Z,80.15
2022-10-11T23:04:37.922Z,80.26
2022-10-11T23:07:09.471Z,80.30
2022-10-11T23:09:40.876Z,80.28
2022-10-11T23:12:12.307Z,80.26
2022-10-11T23:14:43.533Z,80.04
2022-10-11T23:17:15.258Z,79.77
2022-10-11T23:19:47.403Z,79.80
2022-10-11T23:22:20.200Z,79.99
2022-10-11T23:24:51.964Z,80.15
2022-10-11T23:27:24.009Z,79.93
2022-10-11T23:29:55.359Z,80.01
2022-10-11T23:32:26.813Z,80.17
2022-10-11T23:34:58.181Z,80.00
2022-10-11T23:37:29.488Z,79.63
2022-10-11T23:40:01.335Z,79.77
2022-10-11T23:42:33.914Z,79.88
2022-10-11T23:45:05.949Z,79.86
2022-10-11T23:47:39.180Z,79.95
2022-10-11T23:50:11.698Z,79.69
2022-10-11T23:52:45.045Z,79.57
2022-10-11T23:55:16.203Z,79.87
2022-10-11T23:57:47.537Z,79.86
